Time;durP1;ratioP1;P1;durP2;ratioP2;P2;SDS_P1;SDS_P2;PMS_P1;PMS_P2;Temp;Humidity;BMP_temperature;BMP_pressure;BME280_temperature;BME280_humidity;BME280_pressure;Samples;Min_cycle;Max_cycle;Signal;HPM_P1;HPM_P2
2021/12/27 00:02:40;;;;;;;64.07;40.85;;;;;;;;;;6186381;28;21266;-65
2021/12/27 00:05:41;;;;;;;63.13;42.03;;;;;;;;;;6198539;28;20073;-64
2021/12/27 00:08:43;;;;;;;63.80;41.03;;;;;;;;;;6188488;28;21422;-65
2021/12/27 00:11:45;;;;;;;62.50;39.90;;;;;;;;;;6191129;28;20519;-65
2021/12/27 00:14:48;;;;;;;63.25;40.65;;;;;;;;;;6191917;28;20291;-65
2021/12/27 00:17:49;;;;;;;65.35;42.35;;;;;;;;;;6179847;28;20225;-65
2021/12/27 00:20:51;;;;;;;63.78;41.90;;;;;;;;;;6180221;28;20625;-65
2021/12/27 00:23:52;;;;;;;60.97;40.00;;;;;;;;;;6194611;28;20136;-65
2021/12/27 00:26:54;;;;;;;61.80;41.10;;;;;;;;;;6194314;28;20176;-65
2021/12/27 00:29:57;;;;;;;61.00;39.83;;;;;;;;;;6219927;28;20121;-65
2021/12/27 00:32:59;;;;;;;63.70;41.80;;;;;;;;;;6201447;28;20049;-65
2021/12/27 00:36:00;;;;;;;64.80;42.90;;;;;;;;;;6188828;28;20193;-65
2021/12/27 00:39:02;;;;;;;70.32;41.50;;;;;;;;;;6193518;28;20073;-65
2021/12/27 00:42:05;;;;;;;65.65;42.28;;;;;;;;;;6191044;28;20119;-65
2021/12/27 00:45:09;;;;;;;67.22;42.35;;;;;;;;;;6198159;28;20109;-65
2021/12/27 00:48:11;;;;;;;61.40;41.28;;;;;;;;;;6184526;28;20074;-64
2021/12/27 00:51:13;;;;;;;63.50;40.75;;;;;;;;;;6212054;28;20136;-65
2021/12/27 00:54:15;;;;;;;61.90;41.30;;;;;;;;;;6227371;28;20203;-65
2021/12/27 00:57:16;;;;;;;69.57;44.00;;;;;;;;;;6214596;28;20069;-65
2021/12/27 01:00:21;;;;;;;65.25;42.17;;;;;;;;;;6218291;28;20188;-65
2021/12/27 01:03:23;;;;;;;65.55;41.83;;;;;;;;;;6220659;28;20148;-65
2021/12/27 01:06:24;;;;;;;61.63;40.25;;;;;;;;;;6212235;28;20176;-65
2021/12/27 01:09:36;;;;;;;61.28;41.33;;;;;;;;;;6234998;28;20176;-65
2021/12/27 01:12:49;;;;;;;63.40;41.80;;;;;;;;;;6217982;28;20191;-65
2021/12/27 01:16:10;;;;;;;64.35;42.80;;;;;;;;;;6209041;28;20246;-65
2021/12/27 01:19:12;;;;;;;67.50;41.72;;;;;;;;;;6218659;28;20513;-65
2021/12/27 01:22:16;;;;;;;65.60;42.20;;;;;;;;;;6214109;28;20158;-65
2021/12/27 01:25:18;;;;;;;65.43;40.45;;;;;;;;;;6214466;28;20050;-65
2021/12/27 01:28:20;;;;;;;61.75;41.00;;;;;;;;;;6190464;28;20313;-65
2021/12/27 01:31:23;;;;;;;68.03;43.67;;;;;;;;;;6177256;28;20070;-64
2021/12/27 01:34:26;;;;;;;68.20;44.03;;;;;;;;;;6179250;28;20081;-65
2021/12/27 01:37:28;;;;;;;67.90;43.45;;;;;;;;;;6191779;28;20116;-65
2021/12/27 01:40:30;;;;;;;67.68;43.72;;;;;;;;;;6222461;28;20068;-65
2021/12/27 01:43:32;;;;;;;68.47;42.92;;;;;;;;;;6223645;28;20542;-65
2021/12/27 01:46:36;;;;;;;67.45;42.22;;;;;;;;;;6204416;28;20412;-64
2021/12/27 01:49:38;;;;;;;66.22;42.25;;;;;;;;;;6207706;28;20054;-65
2021/12/27 01:52:39;;;;;;;65.40;42.42;;;;;;;;;;6178343;28;20133;-65
2021/12/27 01:55:41;;;;;;;65.35;42.63;;;;;;;;;;6184505;28;20116;-65
2021/12/27 01:58:43;;;;;;;67.60;43.35;;;;;;;;;;6203815;28;20177;-65
2021/12/27 02:01:46;;;;;;;66.78;42.67;;;;;;;;;;6184255;28;20077;-65
2021/12/27 02:04:48;;;;;;;66.13;43.65;;;;;;;;;;6194422;28;20081;-65
2021/12/27 02:07:50;;;;;;;65.85;43.67;;;;;;;;;;6178528;28;20136;-65
2021/12/27 02:10:51;;;;;;;65.53;44.22;;;;;;;;;;6175058;28;20161;-65
2021/12/27 02:13:53;;;;;;;68.80;42.38;;;;;;;;;;6194399;28;20066;-65
2021/12/27 02:16:56;;;;;;;68.85;43.55;;;;;;;;;;6171658;28;20047;-65
2021/12/27 02:19:59;;;;;;;68.53;43.20;;;;;;;;;;6193808;28;20506;-65
2021/12/27 02:23:03;;;;;;;65.57;43.83;;;;;;;;;;6192609;28;20132;-65
2021/12/27 02:26:05;;;;;;;;;;;;;;;;;;6204246;28;20041;-65
2021/12/27 02:29:09;;;;;;;65.80;41.05;;;;;;;;;;6228280;28;20018;-65
2021/12/27 02:32:10;;;;;;;;;;;;;;;;;;6196663;28;20058;-65
2021/12/27 02:35:15;;;;;;;69.45;43.38;;;;;;;;;;6199441;28;21453;-64
2021/12/27 02:38:19;;;;;;;66.43;42.03;;;;;;;;;;6220260;28;20136;-64
2021/12/27 02:41:20;;;;;;;70.30;43.97;;;;;;;;;;6219265;28;20541;-64
2021/12/27 02:44:23;;;;;;;71.45;45.88;;;;;;;;;;6221027;28;20068;-65
2021/12/27 02:47:24;;;;;;;73.72;46.13;;;;;;;;;;6167701;28;20092;-65
2021/12/27 02:50:28;;;;;;;71.68;45.67;;;;;;;;;;6207113;28;20112;-65
2021/12/27 02:53:29;;;;;;;69.88;44.78;;;;;;;;;;6204777;28;20194;-65
2021/12/27 02:56:33;;;;;;;69.38;43.30;;;;;;;;;;6183390;28;20189;-65
2021/12/27 02:59:35;;;;;;;66.93;44.17;;;;;;;;;;6199953;28;20391;-64
2021/12/27 03:02:37;;;;;;;69.47;42.88;;;;;;;;;;6190679;28;20136;-65
2021/12/27 03:05:42;;;;;;;62.83;42.72;;;;;;;;;;6196517;28;20109;-65
2021/12/27 03:08:45;;;;;;;66.10;42.63;;;;;;;;;;6198799;28;20083;-65
2021/12/27 03:11:46;;;;;;;66.82;42.90;;;;;;;;;;6180636;28;20070;-65
2021/12/27 03:14:48;;;;;;;67.35;43.78;;;;;;;;;;6183729;28;20129;-64
2021/12/27 03:17:50;;;;;;;68.13;44.92;;;;;;;;;;6173603;28;20562;-65
2021/12/27 03:20:54;;;;;;;64.00;42.45;;;;;;;;;;6176126;28;20159;-65
2021/12/27 03:23:56;;;;;;;65.38;42.30;;;;;;;;;;6184123;28;20201;-65
2021/12/27 03:26:57;;;;;;;63.80;41.88;;;;;;;;;;6178397;28;20485;-65
2021/12/27 03:29:59;;;;;;;65.30;42.10;;;;;;;;;;6183549;28;20542;-65
2021/12/27 03:33:01;;;;;;;60.80;41.72;;;;;;;;;;6178575;28;20220;-65
2021/12/27 03:36:05;;;;;;;65.07;42.88;;;;;;;;;;6187565;28;20059;-65
2021/12/27 03:39:08;;;;;;;66.38;41.60;;;;;;;;;;6194818;28;20049;-64
2021/12/27 03:42:10;;;;;;;68.55;44.10;;;;;;;;;;6218939;28;20187;-65
2021/12/27 03:45:11;;;;;;;64.35;42.13;;;;;;;;;;6215716;28;20525;-65
2021/12/27 03:48:13;;;;;;;71.57;45.03;;;;;;;;;;6205867;28;20077;-64
2021/12/27 03:51:16;;;;;;;71.40;46.17;;;;;;;;;;6213074;28;20199;-64
2021/12/27 03:54:18;;;;;;;64.47;42.22;;;;;;;;;;6219239;28;20057;-65
2021/12/27 03:57:19;;;;;;;67.78;43.67;;;;;;;;;;6214423;28;20132;-65
2021/12/27 04:00:46;;;;;;;65.22;41.85;;;;;;;;;;6219429;28;20504;-65
2021/12/27 04:03:49;;;;;;;69.85;43.03;;;;;;;;;;6220071;28;20371;-65
2021/12/27 04:06:52;;;;;;;67.68;43.42;;;;;;;;;;6214587;28;20523;-65
2021/12/27 04:09:54;;;;;;;70.97;43.10;;;;;;;;;;6214965;28;20096;-65
2021/12/27 04:12:56;;;;;;;71.65;44.30;;;;;;;;;;6211149;28;20137;-65
2021/12/27 04:15:57;;;;;;;73.05;44.78;;;;;;;;;;6213177;28;20189;-65
2021/12/27 04:18:59;;;;;;;75.00;45.55;;;;;;;;;;6213310;28;20066;-65
2021/12/27 04:22:03;;;;;;;69.85;42.30;;;;;;;;;;6210389;28;20450;-65
2021/12/27 04:25:05;;;;;;;74.20;44.90;;;;;;;;;;6224074;28;20149;-65
2021/12/27 04:28:06;;;;;;;72.07;44.53;;;;;;;;;;6221554;28;20455;-65
2021/12/27 04:31:08;;;;;;;71.57;43.97;;;;;;;;;;6201559;28;20129;-65
2021/12/27 04:34:10;;;;;;;69.50;43.90;;;;;;;;;;6200813;28;20100;-64
2021/12/27 04:37:13;;;;;;;67.50;44.05;;;;;;;;;;6190597;28;20173;-65
2021/12/27 04:40:16;;;;;;;71.22;44.20;;;;;;;;;;6194944;28;20070;-65
2021/12/27 04:43:20;;;;;;;70.97;45.45;;;;;;;;;;6204720;28;20066;-65
2021/12/27 04:46:22;;;;;;;72.55;44.20;;;;;;;;;;6178980;28;20074;-65
2021/12/27 04:49:23;;;;;;;72.15;45.53;;;;;;;;;;6214281;28;20132;-65
2021/12/27 04:52:26;;;;;;;70.93;44.67;;;;;;;;;;6205153;28;20137;-65
2021/12/27 04:55:29;;;;;;;68.65;44.72;;;;;;;;;;6208833;28;20120;-65
2021/12/27 04:58:31;;;;;;;74.75;45.53;;;;;;;;;;6221784;28;20042;-65
2021/12/27 05:01:33;;;;;;;71.07;44.10;;;;;;;;;;6206986;28;20537;-65
2021/12/27 05:04:35;;;;;;;73.15;45.60;;;;;;;;;;6192789;28;20181;-65
2021/12/27 05:07:38;;;;;;;72.88;44.90;;;;;;;;;;6180422;28;20055;-65
2021/12/27 05:10:40;;;;;;;72.00;45.75;;;;;;;;;;6187151;28;20133;-65
2021/12/27 05:13:41;;;;;;;68.80;43.80;;;;;;;;;;6214355;28;20045;-65
2021/12/27 05:16:43;;;;;;;75.05;47.00;;;;;;;;;;6187646;28;20120;-65
2021/12/27 05:19:44;;;;;;;75.05;45.22;;;;;;;;;;6208253;28;20129;-65
2021/12/27 05:22:48;;;;;;;71.80;44.95;;;;;;;;;;6185901;28;20589;-65
2021/12/27 05:25:49;;;;;;;69.20;44.00;;;;;;;;;;6185142;28;20839;-65
2021/12/27 05:28:51;;;;;;;69.47;43.17;;;;;;;;;;6190800;28;20219;-65
2021/12/27 05:31:53;;;;;;;74.95;46.83;;;;;;;;;;6179090;28;20089;-65
2021/12/27 05:34:54;;;;;;;71.00;44.97;;;;;;;;;;6194452;28;20042;-65
2021/12/27 05:37:57;;;;;;;69.95;44.40;;;;;;;;;;6181151;28;20154;-65
2021/12/27 05:40:59;;;;;;;76.15;45.60;;;;;;;;;;6181342;28;20092;-65
2021/12/27 05:44:00;;;;;;;74.57;44.13;;;;;;;;;;6188607;28;20187;-65
2021/12/27 05:47:02;;;;;;;74.55;45.65;;;;;;;;;;6177928;28;20137;-65
2021/12/27 05:50:07;;;;;;;70.13;44.58;;;;;;;;;;6187474;28;20137;-65
2021/12/27 05:53:10;;;;;;;75.18;45.90;;;;;;;;;;6207868;28;20042;-65
2021/12/27 05:56:12;;;;;;;80.18;47.13;;;;;;;;;;6212114;28;20549;-65
2021/12/27 05:59:13;;;;;;;80.07;46.28;;;;;;;;;;6221579;28;20129;-65
2021/12/27 06:02:15;;;;;;;77.22;46.92;;;;;;;;;;6203944;28;20200;-65
2021/12/27 06:05:17;;;;;;;76.45;45.95;;;;;;;;;;6213163;28;20465;-65
2021/12/27 06:08:20;;;;;;;75.82;47.38;;;;;;;;;;6218836;28;20550;-65
2021/12/27 06:11:22;;;;;;;74.30;46.10;;;;;;;;;;6209798;28;20128;-65
2021/12/27 06:14:23;;;;;;;72.50;44.10;;;;;;;;;;6220641;28;20057;-65
2021/12/27 06:17:25;;;;;;;71.10;45.10;;;;;;;;;;6201076;28;20082;-65
2021/12/27 06:20:27;;;;;;;74.38;47.17;;;;;;;;;;6209132;28;20061;-65
2021/12/27 06:23:30;;;;;;;74.85;46.17;;;;;;;;;;6211537;28;20169;-65
2021/12/27 06:26:31;;;;;;;76.53;47.92;;;;;;;;;;6206929;28;20086;-65
2021/12/27 06:29:33;;;;;;;72.07;46.55;;;;;;;;;;6217750;28;20133;-65
2021/12/27 06:32:34;;;;;;;72.70;46.80;;;;;;;;;;6210600;28;20135;-66
2021/12/27 06:35:36;;;;;;;73.97;46.65;;;;;;;;;;6209139;28;20121;-64
2021/12/27 06:38:39;;;;;;;71.93;46.88;;;;;;;;;;6223389;28;20060;-65
2021/12/27 06:41:41;;;;;;;68.28;46.30;;;;;;;;;;6211776;28;20184;-65
2021/12/27 06:44:42;;;;;;;69.78;47.63;;;;;;;;;;6220428;28;20180;-65
2021/12/27 06:47:44;;;;;;;77.70;50.10;;;;;;;;;;6179010;28;20133;-64
2021/12/27 06:50:47;;;;;;;74.65;48.97;;;;;;;;;;6178006;28;20147;-65
2021/12/27 06:53:50;;;;;;;75.63;50.20;;;;;;;;;;6202256;28;20154;-65
2021/12/27 06:56:52;;;;;;;80.93;50.30;;;;;;;;;;6189717;28;20165;-65
2021/12/27 06:59:54;;;;;;;72.53;48.53;;;;;;;;;;6181355;28;20510;-65
2021/12/27 07:02:56;;;;;;;73.75;47.28;;;;;;;;;;6174016;28;20041;-65
2021/12/27 07:05:57;;;;;;;74.18;47.67;;;;;;;;;;6179918;28;20165;-65
2021/12/27 07:09:00;;;;;;;80.30;50.88;;;;;;;;;;6211478;28;20351;-65
2021/12/27 07:12:02;;;;;;;74.35;48.75;;;;;;;;;;6193814;28;20054;-64
2021/12/27 07:15:04;;;;;;;73.57;47.47;;;;;;;;;;6187371;28;20268;-65
2021/12/27 07:18:06;;;;;;;76.78;46.88;;;;;;;;;;6171428;28;20105;-65
2021/12/27 07:21:07;;;;;;;75.38;48.05;;;;;;;;;;6179343;28;20158;-64
2021/12/27 07:24:10;;;;;;;71.00;43.92;;;;;;;;;;6186803;28;20189;-65
2021/12/27 07:27:12;;;;;;;67.50;42.47;;;;;;;;;;6185589;28;20236;-65
2021/12/27 07:30:13;;;;;;;64.30;41.00;;;;;;;;;;6208885;28;20136;-65
2021/12/27 07:33:15;;;;;;;68.38;45.72;;;;;;;;;;6199816;28;20673;-65
2021/12/27 07:36:17;;;;;;;69.30;45.65;;;;;;;;;;6182041;28;20124;-65
2021/12/27 07:39:22;;;;;;;73.63;46.03;;;;;;;;;;6213279;28;20082;-65
2021/12/27 07:42:24;;;;;;;68.38;45.00;;;;;;;;;;6182074;28;20101;-65
2021/12/27 07:45:26;;;;;;;68.72;46.22;;;;;;;;;;6186669;28;20353;-65
2021/12/27 07:48:27;;;;;;;73.50;46.40;;;;;;;;;;6182238;28;20051;-65
2021/12/27 07:51:29;;;;;;;68.50;45.63;;;;;;;;;;6194072;28;20171;-65
2021/12/27 07:54:32;;;;;;;66.85;44.97;;;;;;;;;;6198923;28;20154;-65
2021/12/27 07:57:34;;;;;;;66.55;42.67;;;;;;;;;;6205955;28;20163;-65
2021/12/27 08:00:35;;;;;;;65.50;43.95;;;;;;;;;;6206229;28;20038;-65
2021/12/27 08:03:37;;;;;;;65.63;44.63;;;;;;;;;;6216238;28;20129;-65
2021/12/27 08:06:39;;;;;;;69.75;45.17;;;;;;;;;;6178073;28;20074;-65
2021/12/27 08:09:42;;;;;;;61.78;42.78;;;;;;;;;;6192938;28;20136;-65
2021/12/27 08:12:44;;;;;;;68.60;45.25;;;;;;;;;;6181690;28;20202;-65
2021/12/27 08:15:45;;;;;;;67.78;45.63;;;;;;;;;;6193497;28;20141;-65
2021/12/27 08:18:47;;;;;;;67.00;45.85;;;;;;;;;;6213177;28;20163;-65
2021/12/27 08:21:49;;;;;;;72.05;46.38;;;;;;;;;;6195110;28;20104;-65
2021/12/27 08:24:52;;;;;;;65.50;44.80;;;;;;;;;;6214463;28;20150;-65
2021/12/27 08:27:54;;;;;;;69.50;46.53;;;;;;;;;;6182908;28;20498;-65
2021/12/27 08:30:55;;;;;;;70.72;47.08;;;;;;;;;;6177509;28;20140;-65
2021/12/27 08:33:57;;;;;;;69.38;46.50;;;;;;;;;;6202955;28;20187;-65
2021/12/27 08:36:59;;;;;;;73.80;46.83;;;;;;;;;;6210493;28;20046;-65
2021/12/27 08:40:02;;;;;;;67.55;47.70;;;;;;;;;;6201538;28;20506;-65
2021/12/27 08:43:03;;;;;;;71.78;46.88;;;;;;;;;;6184651;28;20128;-65
2021/12/27 08:46:05;;;;;;;69.57;46.78;;;;;;;;;;6193563;28;20058;-65
2021/12/27 08:49:07;;;;;;;66.25;46.00;;;;;;;;;;6182339;28;20050;-65
2021/12/27 08:52:09;;;;;;;71.75;48.05;;;;;;;;;;6180478;28;20557;-65
2021/12/27 08:55:12;;;;;;;77.63;48.33;;;;;;;;;;6189987;28;20583;-64
2021/12/27 08:58:14;;;;;;;72.43;47.35;;;;;;;;;;6208371;28;20195;-64
2021/12/27 09:01:15;;;;;;;72.50;48.75;;;;;;;;;;6176864;28;20050;-64
2021/12/27 09:04:17;;;;;;;72.07;46.63;;;;;;;;;;6195407;28;20078;-64
2021/12/27 09:07:19;;;;;;;70.53;46.20;;;;;;;;;;6186604;28;20188;-64
2021/12/27 09:10:22;;;;;;;72.47;46.75;;;;;;;;;;6188926;28;20046;-64
2021/12/27 09:13:23;;;;;;;69.32;48.20;;;;;;;;;;6219761;28;20093;-64
2021/12/27 09:16:25;;;;;;;71.10;47.40;;;;;;;;;;6210731;28;20168;-64
2021/12/27 09:19:27;;;;;;;72.60;48.85;;;;;;;;;;6213734;28;20139;-64
2021/12/27 09:22:28;;;;;;;71.28;48.17;;;;;;;;;;6206146;28;20162;-65
2021/12/27 09:25:31;;;;;;;73.60;48.50;;;;;;;;;;6212957;28;20038;-65
2021/12/27 09:28:33;;;;;;;69.20;46.58;;;;;;;;;;6217234;28;20123;-65
2021/12/27 09:31:35;;;;;;;66.72;46.33;;;;;;;;;;6192279;28;20417;-64
2021/12/27 09:34:37;;;;;;;65.82;46.15;;;;;;;;;;6185477;28;20061;-65
2021/12/27 09:37:39;;;;;;;66.85;46.00;;;;;;;;;;6199849;28;20078;-64
2021/12/27 09:40:42;;;;;;;68.60;46.72;;;;;;;;;;6199938;28;20103;-64
2021/12/27 09:43:44;;;;;;;69.50;46.08;;;;;;;;;;6201144;28;20065;-64
2021/12/27 09:46:46;;;;;;;71.63;47.08;;;;;;;;;;6195879;28;20089;-64
2021/12/27 09:49:48;;;;;;;67.03;45.97;;;;;;;;;;6209455;28;20666;-65
2021/12/27 09:52:50;;;;;;;72.07;46.00;;;;;;;;;;6200315;28;20173;-65
2021/12/27 09:55:53;;;;;;;71.03;47.75;;;;;;;;;;6198310;28;20057;-65
2021/12/27 09:58:56;;;;;;;69.05;46.47;;;;;;;;;;6213421;28;20118;-65
2021/12/27 10:01:57;;;;;;;70.72;48.05;;;;;;;;;;6202317;28;20133;-65
2021/12/27 10:04:59;;;;;;;72.10;47.65;;;;;;;;;;6208746;28;20068;-65
2021/12/27 10:08:01;;;;;;;74.28;48.42;;;;;;;;;;6196360;28;20128;-65
2021/12/27 10:11:04;;;;;;;72.85;48.15;;;;;;;;;;6204568;28;20588;-65
2021/12/27 10:14:08;;;;;;;75.43;48.60;;;;;;;;;;6209499;28;20176;-65
2021/12/27 10:17:11;;;;;;;70.75;49.13;;;;;;;;;;6189452;28;20144;-64
2021/12/27 10:20:14;;;;;;;72.88;48.58;;;;;;;;;;6200809;28;20490;-65
2021/12/27 10:23:18;;;;;;;71.15;46.95;;;;;;;;;;6199943;28;20088;-64
2021/12/27 10:26:21;;;;;;;76.13;47.70;;;;;;;;;;6202700;28;20053;-64
2021/12/27 10:29:26;;;;;;;72.95;47.15;;;;;;;;;;6224875;28;20045;-65
2021/12/27 10:32:27;;;;;;;75.53;45.95;;;;;;;;;;6207371;28;20065;-64
2021/12/27 10:35:34;;;;;;;75.68;48.05;;;;;;;;;;6187378;28;20405;-65
2021/12/27 10:38:37;;;;;;;73.68;49.22;;;;;;;;;;6193704;28;20057;-65
2021/12/27 10:41:40;;;;;;;74.30;49.25;;;;;;;;;;6183040;28;20061;-68
2021/12/27 10:44:43;;;;;;;75.85;48.90;;;;;;;;;;6212545;28;20057;-65
2021/12/27 10:47:45;;;;;;;77.15;47.65;;;;;;;;;;6175960;28;20642;-66
2021/12/27 10:50:47;;;;;;;72.25;45.33;;;;;;;;;;6182380;28;20038;-66
2021/12/27 10:53:50;;;;;;;76.28;47.28;;;;;;;;;;6200120;28;20520;-66
2021/12/27 10:56:54;;;;;;;76.00;48.27;;;;;;;;;;6183045;28;20495;-66
2021/12/27 11:00:21;;;;;;;81.32;49.15;;;;;;;;;;6194150;28;20053;-66
2021/12/27 11:03:29;;;;;;;82.07;50.22;;;;;;;;;;6181928;28;20074;-66
2021/12/27 11:06:33;;;;;;;86.65;52.88;;;;;;;;;;6183978;28;20133;-66
2021/12/27 11:09:36;;;;;;;82.45;51.38;;;;;;;;;;6228170;28;20045;-65
2021/12/27 11:12:39;;;;;;;87.72;52.22;;;;;;;;;;6206704;28;20041;-66
2021/12/27 11:15:42;;;;;;;87.57;52.83;;;;;;;;;;6206399;28;20166;-66
2021/12/27 11:18:44;;;;;;;88.93;53.87;;;;;;;;;;6210363;28;20090;-66
2021/12/27 11:21:48;;;;;;;94.45;55.00;;;;;;;;;;6208287;28;20057;-66
2021/12/27 11:24:49;;;;;;;95.93;56.70;;;;;;;;;;6223856;28;20077;-66
2021/12/27 11:27:53;;;;;;;87.85;54.58;;;;;;;;;;6204475;28;20085;-66
2021/12/27 11:30:56;;;;;;;81.25;52.83;;;;;;;;;;6198183;28;20137;-66
2021/12/27 11:34:00;;;;;;;85.65;51.72;;;;;;;;;;6187444;28;20060;-66
2021/12/27 11:37:10;;;;;;;75.10;47.08;;;;;;;;;;6180572;28;20045;-66
2021/12/27 11:40:14;;;;;;;79.13;47.67;;;;;;;;;;6196185;28;21095;-66
2021/12/27 11:43:17;;;;;;;77.63;48.10;;;;;;;;;;6186891;28;20178;-66
2021/12/27 11:46:19;;;;;;;77.50;46.00;;;;;;;;;;6169799;28;20129;-66
2021/12/27 11:49:34;;;;;;;83.72;48.88;;;;;;;;;;6189320;28;20181;-66
2021/12/27 11:52:38;;;;;;;;;;;;;;;;;;6179382;28;20170;-66
2021/12/27 11:55:40;;;;;;;79.03;45.40;;;;;;;;;;6203153;28;19932;-66
2021/12/27 11:58:45;;;;;;;79.95;47.25;;;;;;;;;;6218532;28;20442;-66
2021/12/27 12:01:47;;;;;;;83.60;49.55;;;;;;;;;;6199689;28;20050;-66
2021/12/27 12:04:49;;;;;;;92.97;50.38;;;;;;;;;;6215203;28;20529;-64
2021/12/27 12:07:52;;;;;;;86.55;49.70;;;;;;;;;;6195740;28;20184;-66
2021/12/27 12:10:58;;;;;;;94.47;54.58;;;;;;;;;;6173068;28;20132;-65
2021/12/27 12:14:29;;;;;;;95.88;53.72;;;;;;;;;;6186777;28;20629;-65
2021/12/27 12:17:37;;;;;;;87.50;51.28;;;;;;;;;;6183387;28;20053;-64
2021/12/27 12:20:38;;;;;;;88.55;51.22;;;;;;;;;;6186976;28;20459;-65
2021/12/27 12:23:54;;;;;;;86.85;52.17;;;;;;;;;;6212457;28;20367;-64
2021/12/27 12:26:57;;;;;;;90.78;53.30;;;;;;;;;;6208561;28;20482;-64
2021/12/27 12:30:00;;;;;;;88.07;51.45;;;;;;;;;;6221916;28;20171;-64
2021/12/27 12:33:07;;;;;;;84.30;51.25;;;;;;;;;;6200812;28;20065;-64
2021/12/27 12:36:11;;;;;;;87.03;49.75;;;;;;;;;;6184261;28;20082;-64
2021/12/27 12:39:12;;;;;;;;;;;;;;;;;;6185926;28;20070;-64
2021/12/27 12:42:16;;;;;;;78.25;45.50;;;;;;;;;;6180179;28;20000;-64
2021/12/27 12:45:19;;;;;;;84.35;48.25;;;;;;;;;;6188885;28;20043;-64
2021/12/27 12:48:27;;;;;;;84.38;48.67;;;;;;;;;;6195975;28;20096;-64
2021/12/27 12:51:34;;;;;;;85.40;47.25;;;;;;;;;;6193017;28;20091;-64
2021/12/27 12:54:39;;;;;;;81.53;45.53;;;;;;;;;;6204651;28;20196;-64
2021/12/27 12:57:47;;;;;;;79.30;44.30;;;;;;;;;;6189848;28;20046;-63
2021/12/27 13:00:51;;;;;;;72.93;42.22;;;;;;;;;;6174979;28;20954;-64
2021/12/27 13:03:57;;;;;;;75.32;41.92;;;;;;;;;;6186567;28;20192;-64
2021/12/27 13:06:58;;;;;;;73.22;41.95;;;;;;;;;;6184072;28;20727;-64
2021/12/27 13:10:01;;;;;;;77.05;42.78;;;;;;;;;;6196801;28;20081;-63
2021/12/27 13:13:04;;;;;;;70.90;42.90;;;;;;;;;;6208440;28;20057;-64
2021/12/27 13:16:07;;;;;;;86.97;43.10;;;;;;;;;;6201321;28;20191;-64
2021/12/27 13:19:10;;;;;;;75.32;41.78;;;;;;;;;;6210595;28;20214;-64
2021/12/27 13:22:11;;;;;;;74.57;40.97;;;;;;;;;;6189163;28;20505;-64
2021/12/27 13:25:16;;;;;;;73.60;41.97;;;;;;;;;;6209950;28;20102;-64
2021/12/27 13:28:21;;;;;;;81.32;45.55;;;;;;;;;;6209331;28;20118;-64
2021/12/27 13:31:25;;;;;;;77.80;44.10;;;;;;;;;;6166424;28;20476;-64
2021/12/27 13:34:27;;;;;;;;;;;;;;;;;;6184859;28;20170;-64
2021/12/27 13:37:28;;;;;;;78.60;42.45;;;;;;;;;;6198846;28;20020;-64
2021/12/27 13:40:30;;;;;;;84.45;44.28;;;;;;;;;;6181468;28;20045;-64
2021/12/27 13:43:33;;;;;;;84.72;44.33;;;;;;;;;;6217002;28;20154;-64
2021/12/27 13:46:49;;;;;;;80.53;45.08;;;;;;;;;;6193155;28;20185;-64
2021/12/27 13:49:57;;;;;;;83.38;44.17;;;;;;;;;;6211529;28;20172;-63
2021/12/27 13:52:59;;;;;;;80.38;42.58;;;;;;;;;;6180063;28;20116;-64
2021/12/27 13:56:09;;;;;;;82.72;42.70;;;;;;;;;;6175196;28;20062;-64
2021/12/27 13:59:13;;;;;;;78.75;40.72;;;;;;;;;;6199107;28;20053;-63
2021/12/27 14:02:17;;;;;;;75.03;39.25;;;;;;;;;;6169720;28;20185;-64
2021/12/27 14:05:24;;;;;;;70.28;38.83;;;;;;;;;;6178619;28;20046;-64
2021/12/27 14:08:29;;;;;;;65.13;37.55;;;;;;;;;;6195666;28;20494;-64
2021/12/27 14:11:31;;;;;;;67.60;36.80;;;;;;;;;;6180233;28;20403;-63
2021/12/27 14:14:34;;;;;;;73.60;37.63;;;;;;;;;;6208561;28;20133;-64
2021/12/27 14:17:42;;;;;;;74.65;39.08;;;;;;;;;;6189823;28;20050;-64
2021/12/27 14:21:02;;;;;;;69.45;35.95;;;;;;;;;;6195832;28;20672;-64
2021/12/27 14:24:05;;;;;;;74.15;37.50;;;;;;;;;;6214039;28;20160;-64
2021/12/27 14:27:15;;;;;;;76.47;40.53;;;;;;;;;;6205518;28;20497;-64
2021/12/27 14:30:22;;;;;;;76.65;40.88;;;;;;;;;;6217632;28;20533;-64
2021/12/27 14:33:25;;;;;;;75.55;40.15;;;;;;;;;;6212791;28;20477;-64
2021/12/27 14:36:26;;;;;;;76.88;42.08;;;;;;;;;;6199288;28;20147;-64
2021/12/27 14:39:28;;;;;;;79.13;42.17;;;;;;;;;;6213795;28;20145;-63
2021/12/27 14:42:29;;;;;;;79.78;42.50;;;;;;;;;;6180470;28;20082;-63
2021/12/27 14:45:33;;;;;;;83.18;41.80;;;;;;;;;;6183436;28;20103;-64
2021/12/27 14:48:36;;;;;;;75.32;40.78;;;;;;;;;;6196068;28;20055;-64
2021/12/27 14:51:38;;;;;;;74.28;40.67;;;;;;;;;;6187427;28;20094;-63
2021/12/27 14:54:40;;;;;;;75.80;40.10;;;;;;;;;;6188990;28;20104;-64
2021/12/27 14:57:42;;;;;;;73.78;39.03;;;;;;;;;;6182520;28;20198;-63
2021/12/27 15:00:45;;;;;;;75.45;40.45;;;;;;;;;;6191625;28;20081;-64
2021/12/27 15:03:48;;;;;;;77.85;40.55;;;;;;;;;;6209939;28;20132;-63
2021/12/27 15:06:50;;;;;;;72.93;38.80;;;;;;;;;;6203688;28;20073;-64
2021/12/27 15:09:51;;;;;;;77.90;40.30;;;;;;;;;;6200960;28;20616;-63
2021/12/27 15:12:53;;;;;;;74.72;39.53;;;;;;;;;;6184740;28;20149;-63
2021/12/27 15:15:55;;;;;;;79.60;41.15;;;;;;;;;;6171360;28;20069;-64
2021/12/27 15:18:58;;;;;;;78.18;41.85;;;;;;;;;;6183519;28;20116;-64
2021/12/27 15:21:59;;;;;;;73.00;40.65;;;;;;;;;;6183926;28;20560;-63
2021/12/27 15:25:01;;;;;;;73.85;38.83;;;;;;;;;;6194179;28;20080;-64
2021/12/27 15:28:03;;;;;;;74.03;38.95;;;;;;;;;;6182855;28;20165;-63
2021/12/27 15:31:05;;;;;;;73.75;39.58;;;;;;;;;;6204858;28;20555;-64
2021/12/27 15:34:08;;;;;;;71.45;36.80;;;;;;;;;;6188084;28;20074;-63
2021/12/27 15:37:11;;;;;;;64.90;36.47;;;;;;;;;;6198500;28;20045;-63
2021/12/27 15:40:13;;;;;;;75.38;38.58;;;;;;;;;;6214522;28;20128;-64
2021/12/27 15:43:15;;;;;;;72.78;38.47;;;;;;;;;;6206327;28;20045;-63
2021/12/27 15:46:17;;;;;;;73.10;38.63;;;;;;;;;;6185076;28;20849;-63
2021/12/27 15:49:20;;;;;;;72.28;38.92;;;;;;;;;;6209172;28;20125;-63
2021/12/27 15:52:21;;;;;;;71.85;37.63;;;;;;;;;;6178504;28;20116;-64
2021/12/27 15:55:23;;;;;;;75.93;37.10;;;;;;;;;;6178205;28;20132;-64
2021/12/27 15:58:24;;;;;;;72.68;38.88;;;;;;;;;;6190794;28;20042;-64
2021/12/27 16:01:26;;;;;;;74.05;39.28;;;;;;;;;;6177441;28;20497;-64
2021/12/27 16:04:29;;;;;;;74.85;39.38;;;;;;;;;;6212351;28;20617;-64
2021/12/27 16:07:31;;;;;;;79.57;39.38;;;;;;;;;;6199485;28;20188;-64
2021/12/27 16:10:33;;;;;;;72.82;38.75;;;;;;;;;;6202982;28;20856;-64
2021/12/27 16:13:38;;;;;;;74.47;39.05;;;;;;;;;;6218419;28;20045;-64
2021/12/27 16:16:41;;;;;;;72.32;37.38;;;;;;;;;;6193540;28;20051;-64
2021/12/27 16:19:44;;;;;;;80.40;40.08;;;;;;;;;;6215638;28;20053;-63
2021/12/27 16:22:46;;;;;;;74.68;39.65;;;;;;;;;;6205077;28;20878;-64
2021/12/27 16:25:48;;;;;;;81.28;40.55;;;;;;;;;;6208458;28;20113;-64
2021/12/27 16:28:50;;;;;;;76.80;41.85;;;;;;;;;;6220708;28;20041;-64
2021/12/27 16:31:52;;;;;;;90.35;43.28;;;;;;;;;;6194984;28;20081;-63
2021/12/27 16:34:55;;;;;;;81.30;43.80;;;;;;;;;;6217153;28;20184;-64
2021/12/27 16:37:57;;;;;;;79.72;42.78;;;;;;;;;;6206992;28;20057;-63
2021/12/27 16:40:58;;;;;;;88.13;44.63;;;;;;;;;;6208150;28;20185;-63
2021/12/27 16:44:00;;;;;;;84.47;43.35;;;;;;;;;;6219461;28;20136;-63
2021/12/27 16:47:02;;;;;;;83.82;44.13;;;;;;;;;;6190407;28;20093;-64
2021/12/27 16:50:05;;;;;;;81.05;43.35;;;;;;;;;;6186810;28;20141;-64
2021/12/27 16:53:08;;;;;;;83.88;44.33;;;;;;;;;;6187375;28;20129;-64
2021/12/27 16:56:09;;;;;;;80.63;44.65;;;;;;;;;;6175613;28;20454;-64
2021/12/27 16:59:11;;;;;;;85.15;44.80;;;;;;;;;;6185859;28;20132;-63
2021/12/27 17:02:12;;;;;;;82.25;44.17;;;;;;;;;;6172271;28;20241;-64
2021/12/27 17:05:15;;;;;;;87.82;45.92;;;;;;;;;;6203242;28;20144;-64
2021/12/27 17:08:17;;;;;;;92.68;47.38;;;;;;;;;;6216407;28;20490;-63
2021/12/27 17:11:19;;;;;;;87.82;47.05;;;;;;;;;;6201561;28;20137;-64
2021/12/27 17:14:22;;;;;;;87.15;47.75;;;;;;;;;;6186013;28;20129;-63
2021/12/27 17:17:24;;;;;;;88.80;45.70;;;;;;;;;;6165817;28;20662;-64
2021/12/27 17:20:27;;;;;;;76.00;42.25;;;;;;;;;;6181524;28;20551;-64
2021/12/27 17:23:28;;;;;;;72.05;41.53;;;;;;;;;;6196445;28;20142;-64
2021/12/27 17:26:30;;;;;;;74.35;41.08;;;;;;;;;;6215300;28;20049;-64
2021/12/27 17:29:32;;;;;;;67.82;39.28;;;;;;;;;;6191212;28;20054;-64
2021/12/27 17:32:34;;;;;;;71.88;38.47;;;;;;;;;;6169302;28;20133;-64
2021/12/27 17:35:37;;;;;;;67.72;36.70;;;;;;;;;;6172664;28;20054;-64
2021/12/27 17:38:40;;;;;;;73.93;40.30;;;;;;;;;;6189575;28;20116;-63
2021/12/27 17:41:42;;;;;;;76.90;42.33;;;;;;;;;;6193000;28;20068;-63
2021/12/27 17:44:43;;;;;;;84.75;44.58;;;;;;;;;;6199595;28;20663;-64
2021/12/27 17:47:48;;;;;;;73.45;42.03;;;;;;;;;;6191031;28;20054;-64